createdAt,value
2022-12-11T00:00:40.548Z,4.70
2022-12-11T00:03:15.403Z,4.90
2022-12-11T00:05:44.388Z,4.70
2022-12-11T00:08:12.625Z,4.40
2022-12-11T00:10:48.927Z,3.87
2022-12-11T00:13:16.875Z,3.58
2022-12-11T00:15:44.849Z,3.05
2022-12-11T00:18:14.006Z,2.83
2022-12-11T00:20:42.198Z,1.85
2022-12-11T00:23:10.810Z,2.13
2022-12-11T00:25:45.066Z,1.85
2022-12-11T00:28:13.934Z,1.73
2022-12-11T00:30:42.866Z,2.05
2022-12-11T00:35:40.368Z,1.65
2022-12-11T00:38:08.820Z,1.63
2022-12-11T00:40:37.847Z,1.52
2022-12-11T00:43:07.620Z,1.77
2022-12-11T00:45:38.141Z,1.85
2022-12-11T00:48:06.934Z,1.85
2022-12-11T00:50:35.185Z,1.98
2022-12-11T00:53:03.391Z,1.92
2022-12-11T00:55:31.611Z,1.58
2022-12-11T00:57:59.554Z,2.17
2022-12-11T01:00:28.998Z,2.30
2022-12-11T01:02:57.077Z,2.40
2022-12-11T01:05:25.153Z,2.40
2022-12-11T01:07:53.198Z,2.22
2022-12-11T01:10:26.042Z,2.40
2022-12-11T01:12:55.508Z,2.55
2022-12-11T01:17:54.389Z,2.40
2022-12-11T01:20:24.811Z,2.42
2022-12-11T01:22:54.061Z,2.53
2022-12-11T01:25:22.448Z,2.42
2022-12-11T01:27:52.773Z,2.57
2022-12-11T01:30:22.960Z,2.50
2022-12-11T01:32:51.138Z,2.65
2022-12-11T01:35:21.678Z,2.63
2022-12-11T01:37:50.188Z,2.50
2022-12-11T01:40:20.978Z,2.63
2022-12-11T01:42:49.020Z,2.28
2022-12-11T01:45:33.279Z,2.10
2022-12-11T01:48:05.587Z,2.63
2022-12-11T01:50:37.236Z,1.92
2022-12-11T01:53:08.204Z,1.77
2022-12-11T01:55:38.944Z,1.90
2022-12-11T01:58:07.704Z,1.70
2022-12-11T02:00:35.751Z,2.03
2022-12-11T02:03:03.859Z,2.00
2022-12-11T02:05:31.806Z,1.75
2022-12-11T02:08:03.445Z,1.75
2022-12-11T02:10:49.629Z,1.83
2022-12-11T02:13:23.377Z,2.10
2022-12-11T02:15:58.720Z,2.10
2022-12-11T02:18:32.901Z,2.88
2022-12-11T02:21:10.254Z,2.47
2022-12-11T02:24:08.442Z,2.50
2022-12-11T02:26:54.430Z,2.00
2022-12-11T02:29:30.796Z,2.40
2022-12-11T02:32:04.153Z,2.30
2022-12-11T02:34:38.967Z,2.15
2022-12-11T02:37:10.297Z,2.25
2022-12-11T02:39:42.086Z,2.22
2022-12-11T02:42:12.392Z,1.83
2022-12-11T02:44:42.518Z,2.50
2022-12-11T02:47:17.631Z,1.92
2022-12-11T02:49:50.612Z,2.40
2022-12-11T02:52:23.408Z,2.30
2022-12-11T02:54:53.341Z,2.28
2022-12-11T02:57:28.809Z,2.58
2022-12-11T02:59:58.166Z,2.65
2022-12-11T03:04:54.145Z,2.45
2022-12-11T03:07:26.486Z,2.70
2022-12-11T03:09:54.867Z,3.00
2022-12-11T03:12:26.733Z,2.53
2022-12-11T03:14:54.889Z,2.63
2022-12-11T03:17:26.596Z,2.80
2022-12-11T03:20:00.949Z,3.03
2022-12-11T03:22:35.111Z,2.55
2022-12-11T03:25:06.035Z,2.72
2022-12-11T03:27:38.141Z,3.35
2022-12-11T03:30:10.182Z,3.20
2022-12-11T03:32:44.909Z,3.20
2022-12-11T03:35:18.670Z,3.00
2022-12-11T03:37:49.367Z,3.47
2022-12-11T03:40:20.565Z,3.63
2022-12-11T03:42:52.042Z,3.45
2022-12-11T03:45:22.251Z,3.40
2022-12-11T03:47:53.843Z,3.83
2022-12-11T03:50:24.972Z,3.35
2022-12-11T03:52:54.887Z,3.53
2022-12-11T03:55:23.998Z,4.15
2022-12-11T03:57:52.117Z,4.00
2022-12-11T04:00:22.176Z,3.80
2022-12-11T04:03:11.188Z,3.92
2022-12-11T04:05:41.911Z,3.72
2022-12-11T04:08:10.032Z,3.40
2022-12-11T04:10:38.187Z,4.15
2022-12-11T04:13:06.254Z,4.40
2022-12-11T04:15:33.473Z,3.75
2022-12-11T04:18:20.378Z,3.90
2022-12-11T04:21:05.663Z,4.47
2022-12-11T04:23:50.972Z,4.38
2022-12-11T04:26:21.393Z,3.97
2022-12-11T04:28:50.454Z,4.20
2022-12-11T04:31:19.813Z,4.10
2022-12-11T04:33:49.628Z,4.70
2022-12-11T04:36:18.543Z,3.50
2022-12-11T04:38:46.502Z,3.35
2022-12-11T04:41:16.764Z,3.70
2022-12-11T04:43:45.505Z,3.30
2022-12-11T04:46:15.488Z,3.55
2022-12-11T04:48:44.365Z,3.70
2022-12-11T04:51:14.303Z,2.90
2022-12-11T04:53:42.537Z,2.90
2022-12-11T04:56:12.924Z,2.80
2022-12-11T04:58:41.892Z,3.00
2022-12-11T05:01:10.398Z,2.75
2022-12-11T05:03:38.535Z,3.00
2022-12-11T05:06:07.015Z,3.17
2022-12-11T05:08:38.859Z,4.97
2022-12-11T05:11:09.702Z,3.20
2022-12-11T05:13:38.136Z,3.17
2022-12-11T05:16:07.520Z,3.17
2022-12-11T05:18:35.750Z,3.90
2022-12-11T05:21:07.222Z,5.00
2022-12-11T05:23:37.182Z,4.70
2022-12-11T05:26:07.058Z,4.82
2022-12-11T05:28:36.987Z,4.53
2022-12-11T05:31:07.751Z,4.25
2022-12-11T05:33:36.374Z,3.58
2022-12-11T05:36:05.508Z,4.43
2022-12-11T05:38:33.616Z,3.65
2022-12-11T05:41:05.363Z,3.40
2022-12-11T05:43:36.554Z,3.70
2022-12-11T05:46:08.730Z,3.60
2022-12-11T05:48:37.725Z,3.92
2022-12-11T05:51:06.748Z,3.90
2022-12-11T05:53:34.883Z,4.22
2022-12-11T05:56:05.303Z,4.50
2022-12-11T05:58:33.397Z,4.70
2022-12-11T06:01:01.865Z,4.70
2022-12-11T06:03:29.834Z,4.60
2022-12-11T06:05:57.821Z,4.43
2022-12-11T06:08:25.940Z,5.45
2022-12-11T06:10:53.998Z,6.88
2022-12-11T06:13:23.327Z,5.88
2022-12-11T06:18:19.627Z,5.47
2022-12-11T06:20:47.587Z,5.78
2022-12-11T06:23:15.620Z,6.57
2022-12-11T06:25:43.582Z,6.57
2022-12-11T06:28:11.539Z,6.75
2022-12-11T06:30:41.137Z,7.45
2022-12-11T06:33:09.033Z,5.95
2022-12-11T06:35:42.064Z,7.40
2022-12-11T06:38:10.751Z,7.68
2022-12-11T06:40:38.998Z,6.70
2022-12-11T06:43:06.984Z,6.70
2022-12-11T06:45:35.039Z,6.40
2022-12-11T06:48:04.791Z,6.85
2022-12-11T06:50:32.743Z,6.93
2022-12-11T06:53:00.749Z,7.28
2022-12-11T06:55:28.659Z,7.65
2022-12-11T06:57:56.771Z,8.32
2022-12-11T07:00:24.727Z,7.68
2022-12-11T07:02:52.724Z,7.43
2022-12-11T07:05:22.100Z,8.85
2022-12-11T07:10:18.235Z,8.20
2022-12-11T07:12:46.239Z,8.60
2022-12-11T07:15:14.360Z,9.30
2022-12-11T07:17:42.505Z,8.93
2022-12-11T07:20:11.414Z,8.90
2022-12-11T07:22:46.273Z,9.48
2022-12-11T07:25:15.352Z,9.40
2022-12-11T07:27:43.558Z,9.85
2022-12-11T07:30:12.832Z,9.65
2022-12-11T07:32:40.943Z,10.23
2022-12-11T07:35:10.261Z,11.10
2022-12-11T07:37:42.883Z,9.43
2022-12-11T07:40:11.635Z,10.43
2022-12-11T07:42:45.815Z,10.30
2022-12-11T07:45:14.390Z,10.35
2022-12-11T07:47:42.900Z,10.77
2022-12-11T07:50:11.139Z,10.52
2022-12-11T07:52:39.142Z,10.88
2022-12-11T07:55:09.481Z,11.05
2022-12-11T07:57:37.738Z,10.60
2022-12-11T08:00:06.819Z,10.80
2022-12-11T08:02:40.404Z,11.23
2022-12-11T08:05:09.911Z,11.93
2022-12-11T08:07:38.237Z,11.35
2022-12-11T08:10:08.274Z,11.48
2022-12-11T08:12:36.264Z,12.60
2022-12-11T08:15:04.475Z,11.63
2022-12-11T08:17:38.359Z,11.25
2022-12-11T08:20:09.457Z,11.15
2022-12-11T08:22:37.390Z,11.88
2022-12-11T08:25:05.876Z,12.05
2022-12-11T08:27:35.269Z,11.25
2022-12-11T08:32:30.940Z,11.13
2022-12-11T08:34:58.930Z,12.02
2022-12-11T08:37:26.878Z,12.85
2022-12-11T08:39:54.852Z,12.68
2022-12-11T08:42:22.857Z,12.45
2022-12-11T08:44:52.273Z,12.05
2022-12-11T08:47:21.300Z,12.73
2022-12-11T08:49:49.179Z,12.40
2022-12-11T08:52:17.229Z,12.65
2022-12-11T08:54:45.161Z,13.30
2022-12-11T08:57:13.242Z,12.00
2022-12-11T08:59:42.005Z,12.32
2022-12-11T09:02:13.473Z,12.35
2022-12-11T09:04:41.822Z,12.05
2022-12-11T09:07:09.775Z,12.73
2022-12-11T09:09:37.879Z,12.55
2022-12-11T09:12:06.376Z,12.05
2022-12-11T09:14:34.524Z,12.73
2022-12-11T09:17:02.466Z,12.57
2022-12-11T09:19:32.497Z,12.10
2022-12-11T09:22:00.644Z,13.27
2022-12-11T09:24:28.665Z,12.73
2022-12-11T09:26:56.625Z,13.10
2022-12-11T09:29:24.587Z,12.38
2022-12-11T09:31:52.574Z,12.85
2022-12-11T09:34:23.657Z,12.43
2022-12-11T09:36:56.814Z,12.65
2022-12-11T09:42:00.030Z,12.15
2022-12-11T09:44:41.362Z,12.98
2022-12-11T09:47:28.552Z,12.88
2022-12-11T09:50:04.278Z,11.55
2022-12-11T09:52:38.742Z,10.82
2022-12-11T09:55:16.160Z,13.18
2022-12-11T09:57:57.662Z,11.25
2022-12-11T10:00:34.852Z,10.55
2022-12-11T10:03:26.900Z,11.18
2022-12-11T10:06:06.627Z,11.00
2022-12-11T10:08:42.893Z,13.93
2022-12-11T10:11:33.185Z,13.73
2022-12-11T10:14:07.916Z,12.00
2022-12-11T10:16:40.291Z,12.82
2022-12-11T10:19:15.877Z,11.35
2022-12-11T10:21:44.595Z,12.40
2022-12-11T10:24:42.191Z,13.05
2022-12-11T10:27:19.388Z,11.48
2022-12-11T10:29:48.104Z,11.93
2022-12-11T10:32:24.593Z,10.63
2022-12-11T10:35:00.301Z,11.82
2022-12-11T10:37:28.340Z,10.60
2022-12-11T10:39:57.720Z,10.48
2022-12-11T10:42:25.699Z,10.10
2022-12-11T10:44:58.798Z,10.70
2022-12-11T10:47:26.996Z,10.75
2022-12-11T10:49:58.282Z,11.27
2022-12-11T10:52:28.640Z,11.48
2022-12-11T10:55:01.164Z,10.77
2022-12-11T10:57:30.887Z,11.00
2022-12-11T11:00:00.537Z,9.68
2022-12-11T11:02:32.087Z,10.95
2022-12-11T11:05:02.102Z,11.63
2022-12-11T11:07:33.194Z,11.73
2022-12-11T11:10:15.327Z,11.00
2022-12-11T11:12:45.588Z,12.32
2022-12-11T11:15:16.945Z,13.02
2022-12-11T11:17:54.557Z,12.65
2022-12-11T11:20:26.646Z,14.48
2022-12-11T11:22:57.522Z,12.73
2022-12-11T11:25:28.912Z,14.80
2022-12-11T11:27:59.280Z,14.32
2022-12-11T11:30:30.122Z,13.88
2022-12-11T11:33:02.249Z,14.02
2022-12-11T11:35:32.016Z,14.15
2022-12-11T11:38:07.801Z,14.57
2022-12-11T11:40:42.464Z,14.05
2022-12-11T11:43:19.526Z,14.30
2022-12-11T11:45:54.858Z,15.07
2022-12-11T11:48:35.229Z,15.05
2022-12-11T11:51:14.792Z,14.65
2022-12-11T11:53:46.434Z,15.20
2022-12-11T11:56:22.400Z,14.65
2022-12-11T11:59:02.320Z,14.75
2022-12-11T12:01:30.809Z,15.70
2022-12-11T12:03:59.413Z,15.90
2022-12-11T12:06:39.664Z,14.93
2022-12-11T12:09:22.053Z,13.85
2022-12-11T12:12:00.467Z,14.18
2022-12-11T12:17:28.055Z,16.50
2022-12-11T12:20:08.129Z,16.90
2022-12-11T12:22:52.524Z,15.10
2022-12-11T12:25:26.993Z,16.13
2022-12-11T12:28:04.362Z,16.77
2022-12-11T12:30:41.402Z,14.90
2022-12-11T12:33:26.398Z,15.55
2022-12-11T12:36:04.956Z,15.60
2022-12-11T12:38:46.315Z,14.05
2022-12-11T12:41:19.784Z,15.63
2022-12-11T12:44:01.308Z,15.77
2022-12-11T12:46:44.641Z,17.00
2022-12-11T12:49:17.486Z,17.90
2022-12-11T12:51:47.087Z,16.50
2022-12-11T12:54:18.856Z,17.05
2022-12-11T12:56:48.496Z,15.80
2022-12-11T12:59:26.416Z,17.70
2022-12-11T13:01:58.501Z,16.67
2022-12-11T13:04:55.439Z,16.75
2022-12-11T13:07:29.824Z,17.00
2022-12-11T13:10:06.651Z,17.20
2022-12-11T13:12:45.865Z,18.33
2022-12-11T13:17:58.605Z,18.20
2022-12-11T13:20:28.366Z,16.13
2022-12-11T13:23:10.056Z,16.38
2022-12-11T13:25:50.674Z,16.65
2022-12-11T13:28:26.223Z,15.57
2022-12-11T13:31:07.650Z,16.48
2022-12-11T13:33:44.844Z,16.35
2022-12-11T13:36:39.519Z,16.30
2022-12-11T13:39:17.103Z,16.83
2022-12-11T13:41:48.384Z,15.80
2022-12-11T13:44:22.871Z,15.48
2022-12-11T13:46:52.444Z,16.48
2022-12-11T13:49:25.599Z,16.30
2022-12-11T13:51:56.987Z,16.58
2022-12-11T13:54:25.799Z,15.93
2022-12-11T13:57:02.392Z,17.77
2022-12-11T13:59:34.101Z,16.70
2022-12-11T14:02:07.244Z,17.63
2022-12-11T14:04:36.955Z,17.73
2022-12-11T14:07:09.159Z,18.20
2022-12-11T14:09:40.395Z,15.90
2022-12-11T14:12:10.424Z,16.98
2022-12-11T14:14:43.206Z,15.48
2022-12-11T14:17:15.622Z,15.88
2022-12-11T14:19:49.144Z,16.10
2022-12-11T14:22:22.733Z,14.93
2022-12-11T14:24:52.331Z,16.48
2022-12-11T14:27:21.331Z,16.45
2022-12-11T14:29:49.377Z,16.88
2022-12-11T14:32:21.748Z,17.20
2022-12-11T14:34:52.546Z,16.27
2022-12-11T14:37:24.565Z,16.00
2022-12-11T14:39:59.207Z,15.63
2022-12-11T14:42:31.028Z,15.68
2022-12-11T14:45:04.267Z,14.57
2022-12-11T14:47:35.463Z,16.23
2022-12-11T14:50:09.710Z,14.50
2022-12-11T14:52:42.287Z,14.80
2022-12-11T14:55:16.898Z,15.57
2022-12-11T14:57:48.663Z,16.65
2022-12-11T15:00:25.291Z,15.23
2022-12-11T15:03:01.423Z,16.10
2022-12-11T15:05:37.142Z,16.77
2022-12-11T15:08:24.804Z,15.30
2022-12-11T15:11:03.104Z,15.15
2022-12-11T15:13:31.783Z,16.58
2022-12-11T15:16:00.587Z,16.02
2022-12-11T15:18:32.070Z,15.15
2022-12-11T15:21:05.251Z,17.67
2022-12-11T15:23:33.273Z,16.75
2022-12-11T15:26:02.877Z,17.35
2022-12-11T15:28:34.314Z,16.80
2022-12-11T15:31:04.197Z,16.20
2022-12-11T15:33:34.785Z,17.63
2022-12-11T15:36:07.965Z,17.50
2022-12-11T15:38:39.527Z,18.60
2022-12-11T15:41:14.173Z,19.33
2022-12-11T15:43:42.638Z,19.77
2022-12-11T15:46:10.646Z,19.77
2022-12-11T15:48:38.666Z,19.67
2022-12-11T15:51:08.422Z,20.83
2022-12-11T15:53:36.365Z,19.95
2022-12-11T15:56:04.628Z,18.95
2022-12-11T15:58:32.794Z,19.80
2022-12-11T16:01:00.803Z,19.40
2022-12-11T16:03:28.761Z,19.48
2022-12-11T16:05:56.850Z,19.77
2022-12-11T16:08:26.332Z,20.00
2022-12-11T16:10:56.157Z,20.65
2022-12-11T16:13:24.181Z,20.75
2022-12-11T16:15:54.332Z,20.98
2022-12-11T16:18:24.321Z,19.30
2022-12-11T16:20:53.076Z,19.27
2022-12-11T16:23:21.916Z,19.55
2022-12-11T16:25:51.988Z,20.80
2022-12-11T16:28:21.920Z,21.45
2022-12-11T16:30:49.985Z,21.10
2022-12-11T16:33:18.364Z,17.73
2022-12-11T16:35:46.336Z,19.40
2022-12-11T16:38:14.282Z,18.05
2022-12-11T16:40:42.601Z,18.05
2022-12-11T16:43:12.010Z,15.95
2022-12-11T16:45:42.078Z,17.63
2022-12-11T16:48:10.861Z,18.23
2022-12-11T16:50:40.942Z,17.42
2022-12-11T16:53:08.976Z,17.70
2022-12-11T16:55:36.940Z,19.25
2022-12-11T16:58:04.897Z,21.20
2022-12-11T17:00:34.393Z,18.48
2022-12-11T17:03:02.478Z,18.05
2022-12-11T17:05:30.393Z,16.95
2022-12-11T17:07:59.084Z,19.58
2022-12-11T17:10:27.090Z,20.00
2022-12-11T17:12:55.217Z,18.00
2022-12-11T17:15:23.266Z,17.33
2022-12-11T17:17:52.585Z,17.13
2022-12-11T17:22:48.403Z,16.00
2022-12-11T17:25:22.244Z,16.85
2022-12-11T17:27:50.239Z,18.60
2022-12-11T17:30:18.284Z,19.08
2022-12-11T17:32:49.141Z,18.75
2022-12-11T17:35:18.846Z,20.15
2022-12-11T17:37:47.199Z,19.42
2022-12-11T17:40:15.231Z,19.70
2022-12-11T17:42:44.065Z,20.88
2022-12-11T17:45:12.983Z,19.42
2022-12-11T17:47:41.270Z,21.13
2022-12-11T17:50:09.880Z,17.17
2022-12-11T17:52:44.000Z,19.90
2022-12-11T17:55:12.780Z,21.45
2022-12-11T17:57:41.069Z,23.13
2022-12-11T18:00:10.447Z,21.10
2022-12-11T18:02:40.285Z,19.88
2022-12-11T18:05:09.013Z,18.77
2022-12-11T18:07:39.502Z,19.67
2022-12-11T18:10:07.970Z,21.15
2022-12-11T18:12:35.953Z,19.70
2022-12-11T18:15:04.596Z,19.55
2022-12-11T18:17:32.801Z,19.23
2022-12-11T18:20:00.769Z,18.90
2022-12-11T18:22:28.802Z,18.60
2022-12-11T18:24:59.415Z,19.55
2022-12-11T18:27:28.366Z,19.70
2022-12-11T18:29:56.328Z,17.88
2022-12-11T18:32:24.679Z,18.35
2022-12-11T18:34:52.679Z,19.23
2022-12-11T18:37:26.301Z,18.77
2022-12-11T18:39:56.151Z,20.33
2022-12-11T18:42:32.737Z,20.33
2022-12-11T18:45:01.206Z,18.63
2022-12-11T18:47:29.292Z,19.63
2022-12-11T18:49:59.185Z,19.98
2022-12-11T18:52:29.166Z,20.20
2022-12-11T18:54:57.503Z,18.48
2022-12-11T18:57:26.820Z,20.33
2022-12-11T19:02:23.266Z,17.67
2022-12-11T19:04:51.265Z,19.17
2022-12-11T19:07:19.186Z,20.77
2022-12-11T19:09:48.397Z,18.55
2022-12-11T19:12:16.919Z,17.55
2022-12-11T19:14:46.313Z,17.88
2022-12-11T19:17:14.227Z,18.02
2022-12-11T19:19:43.215Z,20.90
2022-12-11T19:22:11.205Z,17.88
2022-12-11T19:24:39.266Z,19.80
2022-12-11T19:27:13.473Z,19.40
2022-12-11T19:29:41.799Z,19.65
2022-12-11T19:32:11.170Z,20.83
2022-12-11T19:34:39.520Z,20.15
2022-12-11T19:37:07.477Z,19.23
2022-12-11T19:39:35.461Z,18.55
2022-12-11T19:42:03.424Z,20.15
2022-12-11T19:44:32.904Z,17.77
2022-12-11T19:47:01.095Z,19.15
2022-12-11T19:49:30.479Z,19.02
2022-12-11T19:51:58.477Z,18.38
2022-12-11T19:54:27.468Z,17.52
2022-12-11T19:56:55.443Z,18.77
2022-12-11T19:59:23.319Z,18.10
2022-12-11T20:01:51.303Z,17.10
2022-12-11T20:04:19.995Z,19.88
2022-12-11T20:06:49.442Z,17.27
2022-12-11T20:09:18.155Z,19.83
2022-12-11T20:11:47.398Z,19.35
2022-12-11T20:17:11.009Z,20.33
2022-12-11T20:19:41.687Z,19.98
2022-12-11T20:22:11.556Z,19.15
2022-12-11T20:24:39.538Z,19.20
2022-12-11T20:27:07.633Z,20.05
2022-12-11T20:29:35.602Z,21.23
2022-12-11T20:32:05.769Z,18.65
2022-12-11T20:34:33.860Z,20.35
2022-12-11T20:37:01.774Z,19.48
2022-12-11T20:39:32.036Z,19.70
2022-12-11T20:42:01.179Z,19.23
2022-12-11T20:44:29.176Z,18.25
2022-12-11T20:46:57.103Z,19.80
2022-12-11T20:49:25.034Z,19.67
2022-12-11T20:51:56.831Z,21.38
2022-12-11T20:54:24.825Z,18.00
2022-12-11T20:56:54.133Z,17.77
2022-12-11T20:59:22.726Z,19.08
2022-12-11T21:01:53.347Z,17.42
2022-12-11T21:04:21.541Z,17.73
2022-12-11T21:06:55.201Z,17.98
2022-12-11T21:09:24.903Z,18.25
2022-12-11T21:11:57.617Z,16.35
2022-12-11T21:14:25.679Z,13.45
2022-12-11T21:16:53.706Z,13.48
2022-12-11T21:19:21.701Z,14.38
2022-12-11T21:21:50.377Z,13.52
2022-12-11T21:24:21.229Z,12.63
2022-12-11T21:26:49.911Z,13.40
2022-12-11T21:29:19.525Z,11.70
2022-12-11T21:31:47.616Z,12.57
2022-12-11T21:34:19.372Z,11.98
2022-12-11T21:36:54.639Z,11.45
2022-12-11T21:39:22.612Z,11.05
2022-12-11T21:42:00.540Z,11.65
2022-12-11T21:47:18.156Z,11.80
2022-12-11T21:49:46.079Z,11.57
2022-12-11T21:52:14.653Z,11.13
2022-12-11T21:54:45.156Z,10.95
2022-12-11T21:57:26.515Z,12.38
2022-12-11T22:00:02.664Z,10.98
2022-12-11T22:02:41.299Z,11.15
2022-12-11T22:05:10.815Z,11.05
2022-12-11T22:07:39.039Z,10.27
2022-12-11T22:10:08.150Z,11.23
2022-12-11T22:12:36.118Z,11.35
2022-12-11T22:15:06.540Z,11.32
2022-12-11T22:17:34.491Z,11.77
2022-12-11T22:20:02.400Z,11.77
2022-12-11T22:22:30.419Z,11.73
2022-12-11T22:24:58.386Z,11.98
2022-12-11T22:27:26.283Z,11.95
2022-12-11T22:29:55.242Z,11.43
2022-12-11T22:32:24.556Z,11.50
2022-12-11T22:37:20.309Z,11.55
2022-12-11T22:39:48.428Z,11.07
2022-12-11T22:42:16.353Z,12.23
2022-12-11T22:44:44.322Z,11.52
2022-12-11T22:47:12.425Z,11.63
2022-12-11T22:49:41.748Z,12.43
2022-12-11T22:54:39.875Z,11.18
2022-12-11T22:57:07.976Z,12.02
2022-12-11T22:59:36.714Z,11.82
2022-12-11T23:02:04.871Z,13.70
2022-12-11T23:04:33.155Z,14.30
2022-12-11T23:07:02.685Z,13.00
2022-12-11T23:09:30.798Z,13.80
2022-12-11T23:11:58.834Z,14.57
2022-12-11T23:14:26.833Z,13.85
2022-12-11T23:16:54.891Z,15.05
2022-12-11T23:19:25.618Z,13.63
2022-12-11T23:21:54.246Z,14.40
2022-12-11T23:26:52.302Z,13.50
2022-12-11T23:29:20.312Z,13.80
2022-12-11T23:31:48.299Z,13.68
2022-12-11T23:34:16.262Z,13.10
2022-12-11T23:36:44.470Z,12.30
2022-12-11T23:39:12.548Z,13.32
2022-12-11T23:41:43.678Z,13.88
2022-12-11T23:46:42.625Z,14.07
2022-12-11T23:49:10.607Z,14.10
2022-12-11T23:51:38.536Z,13.48
2022-12-11T23:54:06.575Z,13.32
2022-12-11T23:56:34.579Z,13.68
2022-12-11T23:59:03.894Z,12.60
